createdAt,value
2022-09-15T00:01:30.189Z,0.60
2022-09-15T00:03:57.989Z,0.80
2022-09-15T00:06:25.727Z,0.85
2022-09-15T00:08:53.689Z,0.40
2022-09-15T00:11:28.220Z,0.63
2022-09-15T00:13:57.814Z,0.40
2022-09-15T00:16:28.553Z,0.77
2022-09-15T00:18:56.696Z,0.32
2022-09-15T00:21:28.488Z,0.80
2022-09-15T00:23:56.190Z,0.50
2022-09-15T00:26:26.541Z,0.50
2022-09-15T00:28:56.191Z,0.57
2022-09-15T00:31:26.536Z,0.77
2022-09-15T00:33:56.852Z,0.60
2022-09-15T00:36:26.452Z,0.80
2022-09-15T00:38:54.358Z,0.50
2022-09-15T00:41:24.127Z,0.73
2022-09-15T00:44:05.604Z,0.50
2022-09-15T00:46:41.217Z,0.60
2022-09-15T00:49:18.780Z,0.73
2022-09-15T00:51:52.212Z,0.90
2022-09-15T00:54:34.510Z,0.52
2022-09-15T00:57:09.795Z,0.63
2022-09-15T00:59:40.493Z,0.65
2022-09-15T01:02:25.420Z,1.05
2022-09-15T01:04:58.403Z,0.32
2022-09-15T01:07:58.110Z,0.52
2022-09-15T01:10:38.296Z,0.40
2022-09-15T01:13:10.878Z,0.82
2022-09-15T01:16:07.383Z,0.47
2022-09-15T01:18:50.708Z,0.30
2022-09-15T01:21:36.667Z,0.38
2022-09-15T01:24:41.693Z,0.88
2022-09-15T01:27:41.471Z,0.30
2022-09-15T01:30:09.716Z,0.40
2022-09-15T01:33:04.133Z,0.30
2022-09-15T01:35:53.161Z,0.43
2022-09-15T01:38:44.154Z,0.70
2022-09-15T01:41:27.313Z,0.32
2022-09-15T01:44:16.695Z,0.30
2022-09-15T01:46:48.656Z,0.47
2022-09-15T01:49:22.625Z,0.30
2022-09-15T01:51:53.513Z,0.22
2022-09-15T01:54:36.002Z,0.82
2022-09-15T01:57:03.938Z,0.40
2022-09-15T01:59:31.638Z,0.50
2022-09-15T02:02:12.692Z,0.45
2022-09-15T02:05:00.179Z,0.30
2022-09-15T02:08:10.089Z,0.52
2022-09-15T02:10:44.060Z,0.20
2022-09-15T02:13:19.761Z,0.20
2022-09-15T02:15:54.017Z,0.30
2022-09-15T02:19:00.088Z,0.40
2022-09-15T02:22:10.726Z,0.28
2022-09-15T02:24:52.998Z,0.30
2022-09-15T02:27:25.230Z,0.20
2022-09-15T02:29:58.216Z,0.40
2022-09-15T02:32:28.080Z,0.43
2022-09-15T02:34:57.185Z,0.30
2022-09-15T02:37:26.400Z,0.60
2022-09-15T02:39:58.125Z,0.45
2022-09-15T02:42:31.726Z,0.30
2022-09-15T02:45:01.499Z,0.20
2022-09-15T02:47:29.508Z,0.30
2022-09-15T02:49:57.211Z,0.45
2022-09-15T02:52:24.924Z,0.40
2022-09-15T02:54:52.341Z,0.60
2022-09-15T02:57:19.843Z,0.65
2022-09-15T03:00:06.937Z,0.28
2022-09-15T03:02:34.566Z,0.30
2022-09-15T03:05:02.416Z,0.50
2022-09-15T03:07:30.193Z,0.25
2022-09-15T03:09:58.487Z,0.50
2022-09-15T03:12:26.643Z,0.40
2022-09-15T03:14:54.305Z,0.30
2022-09-15T03:17:21.711Z,0.20
2022-09-15T03:19:50.815Z,0.30
2022-09-15T03:24:45.737Z,0.47
2022-09-15T03:27:14.254Z,0.33
2022-09-15T03:29:41.666Z,0.10
2022-09-15T03:32:09.139Z,0.40
2022-09-15T03:34:36.871Z,0.28
2022-09-15T03:37:05.393Z,0.30
2022-09-15T03:39:33.329Z,0.55
2022-09-15T03:42:00.999Z,0.63
2022-09-15T03:44:28.872Z,0.50
2022-09-15T03:46:58.118Z,0.50
2022-09-15T03:49:26.314Z,0.13
2022-09-15T03:51:53.683Z,0.38
2022-09-15T03:54:21.237Z,0.50
2022-09-15T03:56:49.183Z,0.50
2022-09-15T03:59:18.930Z,0.28
2022-09-15T04:01:48.272Z,0.63
2022-09-15T04:04:16.556Z,1.15
2022-09-15T04:06:44.969Z,0.43
2022-09-15T04:09:12.597Z,0.75
2022-09-15T04:11:40.609Z,0.60
2022-09-15T04:14:08.157Z,0.50
2022-09-15T04:16:35.658Z,0.50
2022-09-15T04:19:03.566Z,0.30
2022-09-15T04:21:32.103Z,0.90
2022-09-15T04:23:59.509Z,1.00
2022-09-15T04:26:36.583Z,0.47
2022-09-15T04:29:11.656Z,2.22
2022-09-15T04:31:39.637Z,0.65
2022-09-15T04:34:07.104Z,0.50
2022-09-15T04:36:35.043Z,2.00
2022-09-15T04:39:02.742Z,0.73
2022-09-15T04:41:30.419Z,0.55
2022-09-15T04:43:58.608Z,0.30
2022-09-15T04:46:26.585Z,1.90
2022-09-15T04:48:54.357Z,2.00
2022-09-15T04:51:23.900Z,1.35
2022-09-15T04:53:52.788Z,0.77
2022-09-15T04:56:23.654Z,1.00
2022-09-15T04:59:03.272Z,0.30
2022-09-15T05:01:36.127Z,1.63
2022-09-15T05:04:05.054Z,1.33
2022-09-15T05:06:35.059Z,1.75
2022-09-15T05:09:10.082Z,1.35
2022-09-15T05:11:38.703Z,1.38
2022-09-15T05:14:07.105Z,1.20
2022-09-15T05:16:35.301Z,1.42
2022-09-15T05:19:04.781Z,3.65
2022-09-15T05:21:32.985Z,2.17
2022-09-15T05:24:00.583Z,1.40
2022-09-15T05:26:29.648Z,1.88
2022-09-15T05:28:57.920Z,1.05
2022-09-15T05:31:31.523Z,0.93
2022-09-15T05:34:02.894Z,1.83
2022-09-15T05:36:30.729Z,0.82
2022-09-15T05:38:58.478Z,1.38
2022-09-15T05:41:28.295Z,1.43
2022-09-15T05:43:58.070Z,1.55
2022-09-15T05:46:27.394Z,1.38
2022-09-15T05:48:57.819Z,1.98
2022-09-15T05:51:25.634Z,1.75
2022-09-15T05:53:53.184Z,1.45
2022-09-15T05:56:23.281Z,1.83
2022-09-15T05:58:52.213Z,0.60
2022-09-15T06:01:25.695Z,0.63
2022-09-15T06:03:54.625Z,0.82
2022-09-15T06:06:23.855Z,0.70
2022-09-15T06:08:58.587Z,0.47
2022-09-15T06:11:30.045Z,0.47
2022-09-15T06:14:03.652Z,0.50
2022-09-15T06:16:34.398Z,0.80
2022-09-15T06:19:02.228Z,0.68
2022-09-15T06:21:32.030Z,0.80
2022-09-15T06:24:03.844Z,0.88
2022-09-15T06:26:31.338Z,1.27
2022-09-15T06:29:01.602Z,0.88
2022-09-15T06:31:32.228Z,0.77
2022-09-15T06:34:00.752Z,1.77
2022-09-15T06:36:30.263Z,2.42
2022-09-15T06:38:58.966Z,3.05
2022-09-15T06:41:38.195Z,1.30
2022-09-15T06:44:22.191Z,0.82
2022-09-15T06:46:50.776Z,1.00
2022-09-15T06:51:46.771Z,0.95
2022-09-15T06:54:16.184Z,1.20
2022-09-15T06:56:44.980Z,1.02
2022-09-15T06:59:14.596Z,1.30
2022-09-15T07:01:46.519Z,0.63
2022-09-15T07:04:14.244Z,0.73
2022-09-15T07:06:43.129Z,0.80
2022-09-15T07:11:38.580Z,1.10
2022-09-15T07:14:06.252Z,0.80
2022-09-15T07:16:33.869Z,0.73
2022-09-15T07:19:03.654Z,1.10
2022-09-15T07:21:31.239Z,0.75
2022-09-15T07:23:59.976Z,0.88
2022-09-15T07:26:31.028Z,3.28
2022-09-15T07:29:01.767Z,3.13
2022-09-15T07:31:33.411Z,3.50
2022-09-15T07:34:02.290Z,3.30
2022-09-15T07:41:31.674Z,1.05
2022-09-15T07:44:00.627Z,0.35
2022-09-15T07:46:32.540Z,1.65
2022-09-15T07:49:00.915Z,0.68
2022-09-15T07:51:28.790Z,0.60
2022-09-15T07:53:56.396Z,0.70
2022-09-15T07:56:24.550Z,1.02
2022-09-15T07:58:52.610Z,0.57
2022-09-15T08:01:22.381Z,0.98
2022-09-15T08:03:52.457Z,0.70
2022-09-15T08:06:23.733Z,1.92
2022-09-15T08:08:56.269Z,0.95
2022-09-15T08:11:27.318Z,0.75
2022-09-15T08:13:54.851Z,0.50
2022-09-15T08:16:24.446Z,0.85
2022-09-15T08:18:53.840Z,0.77
2022-09-15T08:21:22.828Z,0.70
2022-09-15T08:23:56.658Z,1.05
2022-09-15T08:26:27.149Z,0.70
2022-09-15T08:28:54.969Z,0.77
2022-09-15T08:31:24.430Z,0.98
2022-09-15T08:33:55.396Z,0.60
2022-09-15T08:36:24.613Z,1.23
2022-09-15T08:38:52.174Z,1.08
2022-09-15T08:41:36.563Z,1.42
2022-09-15T08:44:38.429Z,1.10
2022-09-15T08:47:27.658Z,1.13
2022-09-15T08:50:20.761Z,1.38
2022-09-15T08:53:01.026Z,0.98
2022-09-15T08:55:50.334Z,1.15
2022-09-15T08:58:24.761Z,0.80
2022-09-15T09:01:11.330Z,0.80
2022-09-15T09:03:58.236Z,1.70
2022-09-15T09:07:03.887Z,0.80
2022-09-15T09:09:52.681Z,0.60
2022-09-15T09:12:44.945Z,1.67
2022-09-15T09:15:31.494Z,0.98
2022-09-15T09:18:19.915Z,1.77
2022-09-15T09:21:17.875Z,0.95
2022-09-15T09:24:26.539Z,1.13
2022-09-15T09:26:56.465Z,1.60
2022-09-15T09:29:40.414Z,1.08
2022-09-15T09:32:21.811Z,1.00
2022-09-15T09:35:05.185Z,1.35
2022-09-15T09:37:33.982Z,1.42
2022-09-15T09:40:01.978Z,1.73
2022-09-15T09:42:34.835Z,0.95
2022-09-15T09:45:03.542Z,0.40
2022-09-15T09:47:33.379Z,0.82
2022-09-15T09:50:01.142Z,1.02
2022-09-15T09:52:37.947Z,0.95
2022-09-15T09:55:20.107Z,1.10
2022-09-15T09:57:47.856Z,0.75
2022-09-15T10:00:38.876Z,1.38
2022-09-15T10:03:28.010Z,0.98
2022-09-15T10:06:15.676Z,0.52
2022-09-15T10:09:05.232Z,0.68
2022-09-15T10:14:35.267Z,0.73
2022-09-15T10:17:20.977Z,1.60
2022-09-15T10:19:58.824Z,1.30
2022-09-15T10:22:40.443Z,0.90
2022-09-15T10:25:20.374Z,1.00
2022-09-15T10:28:09.839Z,1.17
2022-09-15T10:30:38.522Z,0.90
2022-09-15T10:33:20.487Z,0.45
2022-09-15T10:35:48.293Z,0.70
2022-09-15T10:38:30.159Z,1.00
2022-09-15T10:41:28.897Z,0.80
2022-09-15T10:44:25.928Z,1.20
2022-09-15T10:47:38.240Z,0.65
2022-09-15T10:50:41.662Z,1.15
2022-09-15T10:53:40.578Z,0.75
2022-09-15T10:59:40.565Z,0.70
2022-09-15T11:02:40.222Z,0.80
2022-09-15T11:05:42.855Z,0.40
2022-09-15T11:08:49.180Z,1.00
2022-09-15T11:11:32.486Z,2.97
2022-09-15T11:14:08.099Z,1.00
2022-09-15T11:17:39.698Z,2.20
2022-09-15T11:20:43.872Z,1.02
2022-09-15T11:23:19.219Z,1.15
2022-09-15T11:26:09.932Z,1.70
2022-09-15T11:28:57.498Z,1.10
2022-09-15T11:31:42.592Z,1.73
2022-09-15T11:34:29.060Z,1.80
2022-09-15T11:37:07.231Z,0.93
2022-09-15T11:39:52.467Z,1.35
2022-09-15T11:42:53.417Z,0.88
2022-09-15T11:45:26.492Z,1.40
2022-09-15T11:48:04.434Z,3.15
2022-09-15T11:50:41.487Z,1.52
2022-09-15T11:53:38.690Z,0.90
2022-09-15T11:56:28.932Z,1.65
2022-09-15T11:59:31.538Z,1.30
2022-09-15T12:02:38.885Z,1.60
2022-09-15T12:05:22.210Z,0.68
2022-09-15T12:08:27.532Z,1.13
2022-09-15T12:10:59.841Z,1.20
2022-09-15T12:13:28.698Z,1.42
2022-09-15T12:15:57.495Z,0.93
2022-09-15T12:19:14.591Z,0.93
2022-09-15T12:21:58.077Z,1.50
2022-09-15T12:24:50.791Z,3.00
2022-09-15T12:27:21.063Z,1.00
2022-09-15T12:29:55.087Z,2.15
2022-09-15T12:32:34.986Z,1.92
2022-09-15T12:35:18.265Z,3.55
2022-09-15T12:37:58.110Z,1.58
2022-09-15T12:40:41.801Z,2.97
2022-09-15T12:43:15.993Z,2.25
2022-09-15T12:45:54.876Z,4.25
2022-09-15T12:48:34.136Z,2.08
2022-09-15T12:51:06.244Z,4.90
2022-09-15T12:53:51.440Z,2.53
2022-09-15T12:56:31.513Z,2.53
2022-09-15T12:59:08.128Z,3.55
2022-09-15T13:01:50.823Z,3.13
2022-09-15T13:04:52.515Z,2.60
2022-09-15T13:07:20.168Z,2.97
2022-09-15T13:09:56.471Z,1.52
2022-09-15T13:12:36.311Z,1.38
2022-09-15T13:15:13.556Z,1.77
2022-09-15T13:17:46.473Z,2.35
2022-09-15T13:20:26.018Z,3.58
2022-09-15T13:22:58.979Z,2.25
2022-09-15T13:25:30.429Z,2.38
2022-09-15T13:28:02.627Z,1.92
2022-09-15T13:30:45.065Z,2.42
2022-09-15T13:40:38.176Z,3.78
2022-09-15T13:43:42.526Z,2.80
2022-09-15T13:46:34.143Z,3.00
2022-09-15T13:49:38.154Z,2.65
2022-09-15T13:52:23.374Z,2.90
2022-09-15T13:55:20.977Z,1.80
2022-09-15T14:00:49.212Z,3.65
2022-09-15T14:03:25.797Z,2.05
2022-09-15T14:05:55.572Z,2.03
2022-09-15T14:08:33.670Z,2.88
2022-09-15T14:11:08.413Z,3.00
2022-09-15T14:13:41.605Z,2.65
2022-09-15T14:16:35.332Z,3.08
2022-09-15T14:19:33.404Z,2.22
2022-09-15T14:22:26.967Z,3.72
2022-09-15T14:24:57.326Z,2.88
2022-09-15T14:27:33.827Z,4.63
2022-09-15T14:30:27.863Z,3.88
2022-09-15T14:33:00.753Z,2.67
2022-09-15T14:35:37.723Z,3.28
2022-09-15T14:38:05.503Z,2.13
2022-09-15T14:40:38.092Z,2.50
2022-09-15T14:43:35.630Z,2.33
2022-09-15T14:46:18.490Z,2.70
2022-09-15T14:48:46.142Z,1.88
2022-09-15T14:51:28.574Z,2.47
2022-09-15T14:54:00.364Z,2.67
2022-09-15T14:56:34.962Z,3.30
2022-09-15T14:59:09.120Z,2.42
2022-09-15T15:01:40.665Z,1.90
2022-09-15T15:04:16.998Z,1.30
2022-09-15T15:07:07.895Z,1.85
2022-09-15T15:09:58.177Z,1.73
2022-09-15T15:12:39.888Z,2.35
2022-09-15T15:15:10.823Z,2.45
2022-09-15T15:17:45.399Z,2.50
2022-09-15T15:20:30.334Z,2.35
2022-09-15T15:23:27.850Z,2.03
2022-09-15T15:26:45.604Z,2.95
2022-09-15T15:29:48.231Z,2.53
2022-09-15T15:32:20.509Z,3.45
2022-09-15T15:34:51.629Z,3.17
2022-09-15T15:37:30.936Z,1.65
2022-09-15T15:40:05.389Z,3.85
2022-09-15T15:42:33.532Z,2.35
2022-09-15T15:45:09.686Z,2.17
2022-09-15T15:47:37.477Z,2.88
2022-09-15T15:50:21.538Z,3.70
2022-09-15T15:52:50.573Z,9.40
2022-09-15T15:55:37.394Z,6.47
2022-09-15T15:58:05.805Z,6.13
2022-09-15T16:00:45.798Z,5.07
2022-09-15T16:03:14.787Z,5.75
2022-09-15T16:05:49.554Z,6.03
2022-09-15T16:08:33.247Z,4.88
2022-09-15T16:11:02.766Z,4.50
2022-09-15T16:13:30.677Z,4.32
2022-09-15T16:16:01.226Z,4.75
2022-09-15T16:18:29.796Z,6.90
2022-09-15T16:20:58.078Z,10.07
2022-09-15T16:23:25.637Z,9.38
2022-09-15T16:26:02.624Z,9.02
2022-09-15T16:28:30.529Z,15.43
2022-09-15T16:30:58.975Z,12.45
2022-09-15T16:33:27.316Z,10.13
2022-09-15T16:36:18.245Z,8.47
2022-09-15T16:38:46.233Z,12.38
2022-09-15T16:41:23.534Z,10.90
2022-09-15T16:43:53.301Z,7.93
2022-09-15T16:46:21.225Z,8.57
2022-09-15T16:48:48.703Z,5.95
2022-09-15T16:51:28.796Z,5.13
2022-09-15T16:53:58.993Z,5.75
2022-09-15T16:56:27.258Z,4.30
2022-09-15T16:59:00.227Z,3.53
2022-09-15T17:01:28.960Z,4.28
2022-09-15T17:03:56.445Z,4.37
2022-09-15T17:06:24.328Z,4.57
2022-09-15T17:08:52.119Z,3.43
2022-09-15T17:11:22.238Z,3.15
2022-09-15T17:13:50.350Z,3.58
2022-09-15T17:16:19.721Z,4.47
2022-09-15T17:18:48.163Z,3.80
2022-09-15T17:21:17.752Z,3.95
2022-09-15T17:23:48.186Z,3.88
2022-09-15T17:26:28.788Z,3.80
2022-09-15T17:28:59.480Z,3.40
2022-09-15T17:31:27.997Z,3.58
2022-09-15T17:33:55.653Z,4.05
2022-09-15T17:36:23.411Z,3.63
2022-09-15T17:38:50.975Z,4.20
2022-09-15T17:41:20.841Z,4.38
2022-09-15T17:43:49.395Z,4.30
2022-09-15T17:46:17.124Z,4.90
2022-09-15T17:48:44.806Z,3.80
2022-09-15T17:51:19.719Z,4.82
2022-09-15T17:53:47.798Z,4.10
2022-09-15T17:56:15.608Z,3.70
2022-09-15T17:58:44.265Z,3.03
2022-09-15T18:01:15.530Z,3.47
2022-09-15T18:03:45.180Z,3.50
2022-09-15T18:06:13.353Z,4.45
2022-09-15T18:08:41.168Z,5.05
2022-09-15T18:11:13.110Z,3.85
2022-09-15T18:13:40.556Z,4.95
2022-09-15T18:16:14.022Z,4.25
2022-09-15T18:18:43.051Z,3.75
2022-09-15T18:21:24.662Z,3.58
2022-09-15T18:23:52.941Z,3.72
2022-09-15T18:26:25.351Z,3.50
2022-09-15T18:28:54.698Z,3.03
2022-09-15T18:31:22.482Z,3.03
2022-09-15T18:33:50.013Z,3.28
2022-09-15T18:36:17.819Z,2.60
2022-09-15T18:38:45.304Z,3.30
2022-09-15T18:41:13.167Z,3.42
2022-09-15T18:43:40.968Z,3.10
2022-09-15T18:46:08.539Z,2.67
2022-09-15T18:48:36.060Z,3.80
2022-09-15T18:51:08.969Z,3.47
2022-09-15T18:53:39.579Z,4.40
2022-09-15T18:56:15.181Z,4.28
2022-09-15T18:58:43.344Z,4.47
2022-09-15T19:01:13.811Z,3.53
2022-09-15T19:03:44.092Z,3.85
2022-09-15T19:06:12.759Z,3.15
2022-09-15T19:08:40.750Z,3.10
2022-09-15T19:11:09.279Z,3.23
2022-09-15T19:13:36.969Z,2.45
2022-09-15T19:16:09.377Z,2.10
2022-09-15T19:18:37.143Z,1.63
2022-09-15T19:21:10.879Z,2.63
2022-09-15T19:23:39.320Z,1.55
2022-09-15T19:26:15.775Z,1.30
2022-09-15T19:28:44.970Z,1.50
2022-09-15T19:31:13.759Z,1.83
2022-09-15T19:33:41.520Z,1.23
2022-09-15T19:36:28.269Z,1.08
2022-09-15T19:38:58.022Z,1.17
2022-09-15T19:41:26.076Z,0.80
2022-09-15T19:43:54.021Z,1.42
2022-09-15T19:46:24.926Z,1.38
2022-09-15T19:48:53.884Z,1.00
2022-09-15T19:53:54.427Z,0.75
2022-09-15T19:56:26.364Z,1.13
2022-09-15T19:58:57.087Z,1.67
2022-09-15T20:01:28.006Z,1.20
2022-09-15T20:03:57.480Z,1.27
2022-09-15T20:09:00.433Z,0.93
2022-09-15T20:11:29.659Z,3.80
2022-09-15T20:13:57.397Z,1.45
2022-09-15T20:16:25.742Z,1.15
2022-09-15T20:18:55.270Z,1.05
2022-09-15T20:21:46.253Z,0.80
2022-09-15T20:24:16.991Z,1.05
2022-09-15T20:26:44.495Z,1.15
2022-09-15T20:29:12.403Z,0.90
2022-09-15T20:31:42.162Z,1.58
2022-09-15T20:34:10.104Z,1.23
2022-09-15T20:36:39.180Z,0.40
2022-09-15T20:39:13.231Z,1.17
2022-09-15T20:41:46.384Z,0.73
2022-09-15T20:44:15.446Z,0.85
2022-09-15T20:46:43.302Z,0.20
2022-09-15T20:49:12.012Z,0.60
2022-09-15T20:51:39.729Z,1.40
2022-09-15T20:54:07.180Z,0.77
2022-09-15T20:56:36.017Z,0.60
2022-09-15T20:59:06.020Z,0.65
2022-09-15T21:01:37.261Z,0.60
2022-09-15T21:04:07.960Z,0.80
2022-09-15T21:06:36.796Z,1.33
2022-09-15T21:09:05.281Z,0.50
2022-09-15T21:11:35.296Z,0.95
2022-09-15T21:14:04.804Z,0.85
2022-09-15T21:16:37.297Z,0.32
2022-09-15T21:19:13.642Z,0.73
2022-09-15T21:21:43.552Z,1.10
2022-09-15T21:24:12.654Z,0.20
2022-09-15T21:27:00.897Z,0.35
2022-09-15T21:29:29.296Z,0.43
2022-09-15T21:31:57.854Z,1.10
2022-09-15T21:34:26.387Z,0.40
2022-09-15T21:36:54.162Z,0.82
2022-09-15T21:39:21.733Z,0.95
2022-09-15T21:41:49.817Z,0.45
2022-09-15T21:44:17.611Z,0.43
2022-09-15T21:46:47.062Z,0.20
2022-09-15T21:49:15.181Z,1.00
2022-09-15T21:51:43.013Z,0.90
2022-09-15T21:54:10.672Z,0.47
2022-09-15T21:56:38.174Z,0.65
2022-09-15T21:59:06.092Z,0.77
2022-09-15T22:01:33.844Z,0.43
2022-09-15T22:04:04.214Z,0.82
2022-09-15T22:06:40.233Z,0.68
2022-09-15T22:09:13.113Z,0.50
2022-09-15T22:11:41.588Z,0.52
2022-09-15T22:14:10.419Z,0.60
2022-09-15T22:16:40.754Z,0.70
2022-09-15T22:19:11.112Z,0.40
2022-09-15T22:21:41.920Z,0.88
2022-09-15T22:24:13.073Z,0.50
2022-09-15T22:26:42.536Z,0.75
2022-09-15T22:29:10.607Z,0.45
2022-09-15T22:31:38.587Z,0.50
2022-09-15T22:34:06.187Z,0.55
2022-09-15T22:36:34.324Z,0.70
2022-09-15T22:39:05.329Z,0.60
2022-09-15T22:41:38.358Z,0.57
2022-09-15T22:44:16.329Z,0.70
2022-09-15T22:46:43.811Z,0.60
2022-09-15T22:49:11.670Z,0.88
2022-09-15T22:51:39.097Z,0.60
2022-09-15T22:54:06.722Z,0.57
2022-09-15T22:56:34.446Z,0.70
2022-09-15T22:59:02.820Z,0.88
2022-09-15T23:01:31.122Z,0.87
2022-09-15T23:04:02.184Z,0.70
2022-09-15T23:06:33.411Z,0.80
2022-09-15T23:09:05.505Z,0.63
2022-09-15T23:11:34.502Z,0.52
2022-09-15T23:14:02.679Z,0.28
2022-09-15T23:16:31.535Z,0.93
2022-09-15T23:19:00.190Z,0.55
2022-09-15T23:21:28.594Z,0.52
2022-09-15T23:23:56.332Z,0.50
2022-09-15T23:26:25.803Z,1.00
2022-09-15T23:28:54.388Z,0.50
2022-09-15T23:31:22.277Z,0.20
2022-09-15T23:33:50.140Z,0.40
2022-09-15T23:36:19.811Z,0.32
2022-09-15T23:38:48.387Z,0.47
2022-09-15T23:41:17.706Z,0.65
2022-09-15T23:43:46.369Z,0.60
2022-09-15T23:46:14.204Z,0.20
2022-09-15T23:48:42.338Z,0.30
2022-09-15T23:51:10.314Z,0.50
2022-09-15T23:53:37.912Z,0.20
2022-09-15T23:56:05.880Z,0.40
2022-09-15T23:58:33.625Z,0.40
